Time;durP1;ratioP1;P1;durP2;ratioP2;P2;SDS_P1;SDS_P2;PMS_P1;PMS_P2;Temp;Humidity;BMP_temperature;BMP_pressure;BME280_temperature;BME280_humidity;BME280_pressure;Samples;Min_cycle;Max_cycle;Signal;HPM_P1;HPM_P2
2024/02/27 00:02:23;;;;;;;13.35;7.57;;;;;;;;;;4986832;28;20049;-77
2024/02/27 00:04:49;;;;;;;14.85;8.45;;;;;;;;;;5000563;28;20105;-78
2024/02/27 00:07:14;;;;;;;15.18;8.07;;;;;;;;;;5002560;28;20121;-78
2024/02/27 00:09:44;;;;;;;14.98;8.20;;;;;;;;;;4998438;28;20076;-78
2024/02/27 00:12:09;;;;;;;15.85;8.65;;;;;;;;;;4984456;28;20157;-78
2024/02/27 00:14:35;;;;;;;14.43;8.30;;;;;;;;;;4997662;28;20600;-78
2024/02/27 00:17:00;;;;;;;14.05;8.70;;;;;;;;;;4996666;28;20041;-78
2024/02/27 00:19:25;;;;;;;12.65;8.35;;;;;;;;;;4996762;28;20119;-78
2024/02/27 00:21:51;;;;;;;14.50;8.15;;;;;;;;;;4979621;28;20132;-78
2024/02/27 00:24:16;;;;;;;18.98;9.43;;;;;;;;;;4996699;28;20478;-78
2024/02/27 00:26:41;;;;;;;13.18;7.97;;;;;;;;;;4996549;28;20080;-78
2024/02/27 00:29:07;;;;;;;14.23;8.57;;;;;;;;;;4998340;28;20454;-77
2024/02/27 00:31:32;;;;;;;14.18;8.63;;;;;;;;;;5007400;28;20550;-78
2024/02/27 00:33:57;;;;;;;15.68;8.23;;;;;;;;;;4995153;28;20105;-78
2024/02/27 00:36:23;;;;;;;13.07;8.45;;;;;;;;;;5000182;28;20033;-78
2024/02/27 00:38:48;;;;;;;15.05;8.40;;;;;;;;;;4998791;28;20026;-78
2024/02/27 00:41:14;;;;;;;15.65;8.95;;;;;;;;;;5001228;28;20032;-78
2024/02/27 00:43:40;;;;;;;14.80;8.38;;;;;;;;;;4997851;28;20025;-78
2024/02/27 00:46:05;;;;;;;15.77;8.75;;;;;;;;;;5001661;28;20038;-78
2024/02/27 00:48:31;;;;;;;15.35;9.00;;;;;;;;;;4998737;28;20018;-78
2024/02/27 00:50:56;;;;;;;14.73;8.18;;;;;;;;;;4988713;28;20052;-77
2024/02/27 00:53:21;;;;;;;15.80;9.45;;;;;;;;;;4998160;28;20057;-77
2024/02/27 00:55:47;;;;;;;14.38;8.93;;;;;;;;;;4990685;28;20480;-78
2024/02/27 00:58:13;;;;;;;16.73;8.77;;;;;;;;;;4987840;28;20034;-78
2024/02/27 01:00:38;;;;;;;15.95;9.52;;;;;;;;;;5000789;28;20071;-78
2024/02/27 01:03:04;;;;;;;16.05;8.80;;;;;;;;;;5001343;28;20033;-81
2024/02/27 01:05:29;;;;;;;15.60;8.43;;;;;;;;;;4997697;28;20034;-81
2024/02/27 01:07:54;;;;;;;15.77;9.18;;;;;;;;;;4996794;28;20041;-81
2024/02/27 01:10:20;;;;;;;13.57;8.35;;;;;;;;;;5007094;28;20523;-81
2024/02/27 01:12:45;;;;;;;15.93;8.77;;;;;;;;;;5003703;28;20113;-81
2024/02/27 01:15:11;;;;;;;17.92;9.10;;;;;;;;;;5000494;28;20025;-81
2024/02/27 01:17:36;;;;;;;15.05;8.25;;;;;;;;;;5011427;28;20041;-81
2024/02/27 01:20:02;;;;;;;15.02;8.20;;;;;;;;;;5008376;28;20152;-81
2024/02/27 01:22:31;;;;;;;15.30;8.82;;;;;;;;;;4991717;28;20032;-81
2024/02/27 01:24:58;;;;;;;17.60;9.10;;;;;;;;;;5010591;28;20022;-81
2024/02/27 01:27:25;;;;;;;14.80;8.75;;;;;;;;;;4988918;28;20096;-81
2024/02/27 01:29:51;;;;;;;16.02;8.23;;;;;;;;;;5010083;28;20021;-81
2024/02/27 01:32:16;;;;;;;17.10;9.02;;;;;;;;;;5007129;28;20030;-81
2024/02/27 01:34:42;;;;;;;14.15;8.35;;;;;;;;;;5001529;28;20509;-81
2024/02/27 01:37:07;;;;;;;15.18;9.15;;;;;;;;;;5006808;28;20072;-81
2024/02/27 01:39:33;;;;;;;15.20;8.73;;;;;;;;;;5011774;28;20041;-81
2024/02/27 01:41:59;;;;;;;14.95;8.90;;;;;;;;;;5004560;28;20089;-81
2024/02/27 01:44:25;;;;;;;15.77;8.85;;;;;;;;;;4993573;28;20029;-81
2024/02/27 01:46:50;;;;;;;17.23;8.93;;;;;;;;;;4991289;28;20026;-81
2024/02/27 01:49:16;;;;;;;15.70;9.07;;;;;;;;;;4990360;28;20046;-81
2024/02/27 01:51:43;;;;;;;16.60;8.63;;;;;;;;;;5006362;28;20059;-81
2024/02/27 01:54:11;;;;;;;14.82;8.77;;;;;;;;;;5002653;28;20395;-81
2024/02/27 01:56:36;;;;;;;14.70;8.70;;;;;;;;;;5004525;28;20491;-80
2024/02/27 01:59:02;;;;;;;14.85;8.52;;;;;;;;;;5005657;28;20061;-81
2024/02/27 02:01:29;;;;;;;15.68;8.88;;;;;;;;;;4987971;28;20512;-81
2024/02/27 02:03:56;;;;;;;16.00;8.80;;;;;;;;;;5000303;28;20117;-81
2024/02/27 02:06:22;;;;;;;15.98;9.02;;;;;;;;;;5003618;28;20069;-81
2024/02/27 02:08:47;;;;;;;13.75;8.07;;;;;;;;;;5006075;28;20120;-81
2024/02/27 02:11:13;;;;;;;16.42;9.50;;;;;;;;;;4996694;28;20108;-78
2024/02/27 02:13:38;;;;;;;14.63;8.77;;;;;;;;;;5007208;28;20022;-81
2024/02/27 02:16:04;;;;;;;13.25;8.05;;;;;;;;;;4999534;28;20033;-81
2024/02/27 02:18:30;;;;;;;15.02;8.40;;;;;;;;;;4992629;28;20040;-81
2024/02/27 02:20:56;;;;;;;15.30;8.70;;;;;;;;;;4993268;28;20113;-81
2024/02/27 02:23:21;;;;;;;16.75;8.52;;;;;;;;;;4997514;28;20109;-81
2024/02/27 02:25:47;;;;;;;13.52;7.82;;;;;;;;;;5005654;28;20062;-81
2024/02/27 02:28:14;;;;;;;14.77;9.13;;;;;;;;;;5002845;28;20197;-81
2024/02/27 02:30:40;;;;;;;14.48;8.60;;;;;;;;;;5003275;28;20076;-81
2024/02/27 02:33:06;;;;;;;14.32;8.20;;;;;;;;;;5004395;28;20026;-81
2024/02/27 02:35:32;;;;;;;17.00;7.88;;;;;;;;;;5004597;28;20068;-81
2024/02/27 02:37:57;;;;;;;16.60;8.73;;;;;;;;;;4998628;28;20400;-81
2024/02/27 02:40:22;;;;;;;14.02;8.35;;;;;;;;;;5008036;28;20022;-81
2024/02/27 02:42:48;;;;;;;17.15;8.88;;;;;;;;;;5002316;28;20026;-81
2024/02/27 02:45:14;;;;;;;14.82;8.50;;;;;;;;;;4998040;28;20048;-81
2024/02/27 02:47:40;;;;;;;15.93;8.45;;;;;;;;;;5000847;28;20400;-81
2024/02/27 02:50:07;;;;;;;15.13;7.90;;;;;;;;;;5002308;28;20022;-81
2024/02/27 02:52:32;;;;;;;14.05;8.13;;;;;;;;;;4992356;28;20506;-81
2024/02/27 02:54:59;;;;;;;13.57;8.00;;;;;;;;;;4990239;28;20029;-81
2024/02/27 02:57:24;;;;;;;17.45;8.20;;;;;;;;;;4993938;28;20033;-80
2024/02/27 02:59:50;;;;;;;17.63;8.45;;;;;;;;;;4983292;28;20438;-81
2024/02/27 03:02:15;;;;;;;14.38;8.27;;;;;;;;;;5002622;28;20369;-81
2024/02/27 03:04:41;;;;;;;13.05;7.68;;;;;;;;;;4985878;28;20507;-81
2024/02/27 03:07:06;;;;;;;15.20;8.52;;;;;;;;;;5004188;28;20029;-81
2024/02/27 03:09:32;;;;;;;13.73;8.05;;;;;;;;;;5004801;28;20100;-81
2024/02/27 03:12:01;;;;;;;13.40;8.02;;;;;;;;;;4998968;28;20041;-81
2024/02/27 03:14:26;;;;;;;16.35;7.97;;;;;;;;;;5003591;28;20097;-81
2024/02/27 03:16:53;;;;;;;14.23;7.80;;;;;;;;;;4995814;28;20109;-81
2024/02/27 03:19:19;;;;;;;12.63;7.65;;;;;;;;;;5003263;28;20029;-81
2024/02/27 03:21:44;;;;;;;14.18;8.20;;;;;;;;;;5002789;28;20520;-81
2024/02/27 03:24:09;;;;;;;13.35;7.97;;;;;;;;;;5006996;28;20026;-81
2024/02/27 03:26:35;;;;;;;13.23;8.00;;;;;;;;;;5009362;28;20026;-82
2024/02/27 03:29:00;;;;;;;12.65;7.57;;;;;;;;;;4990694;28;20058;-82
2024/02/27 03:31:25;;;;;;;15.73;7.85;;;;;;;;;;5003674;28;20032;-79
2024/02/27 03:33:51;;;;;;;15.32;7.95;;;;;;;;;;4999093;28;20061;-81
2024/02/27 03:36:16;;;;;;;14.20;8.25;;;;;;;;;;5001297;28;20543;-81
2024/02/27 03:38:42;;;;;;;12.93;8.18;;;;;;;;;;5003632;28;20113;-81
2024/02/27 03:41:15;;;;;;;14.23;8.15;;;;;;;;;;4999886;28;20118;-81
2024/02/27 03:43:41;;;;;;;12.32;7.72;;;;;;;;;;5003939;28;20031;-81
2024/02/27 03:46:10;;;;;;;13.50;7.47;;;;;;;;;;4992963;28;20033;-81
2024/02/27 03:48:36;;;;;;;13.38;7.70;;;;;;;;;;4990187;28;20021;-81
2024/02/27 03:51:02;;;;;;;12.98;7.53;;;;;;;;;;4987616;28;20117;-82
2024/02/27 03:53:30;;;;;;;13.77;7.78;;;;;;;;;;4990291;28;20547;-81
2024/02/27 03:55:56;;;;;;;13.60;8.00;;;;;;;;;;5000391;28;20057;-81
2024/02/27 03:58:22;;;;;;;14.43;8.23;;;;;;;;;;4997708;28;20065;-81
2024/02/27 04:00:48;;;;;;;14.82;8.35;;;;;;;;;;4987677;28;20599;-81
2024/02/27 04:03:13;;;;;;;12.80;7.72;;;;;;;;;;4984919;28;20069;-81
2024/02/27 04:05:40;;;;;;;14.82;7.93;;;;;;;;;;4999621;28;20026;-81
2024/02/27 04:08:08;;;;;;;16.80;8.32;;;;;;;;;;5003070;28;20065;-81
2024/02/27 04:10:37;;;;;;;13.88;8.13;;;;;;;;;;5003804;28;20034;-81
2024/02/27 04:13:04;;;;;;;11.50;6.80;;;;;;;;;;5001027;28;20077;-82
2024/02/27 04:15:31;;;;;;;14.48;7.55;;;;;;;;;;5002176;28;20115;-82
2024/02/27 04:17:57;;;;;;;14.52;7.78;;;;;;;;;;4995996;28;20022;-81
2024/02/27 04:20:23;;;;;;;11.60;6.65;;;;;;;;;;5000286;28;20137;-82
2024/02/27 04:22:49;;;;;;;14.63;7.13;;;;;;;;;;4981488;28;20026;-82
2024/02/27 04:25:14;;;;;;;13.52;7.15;;;;;;;;;;5001129;28;20524;-82
2024/02/27 04:27:40;;;;;;;13.32;7.38;;;;;;;;;;5004870;28;20032;-82
2024/02/27 04:30:07;;;;;;;14.32;7.53;;;;;;;;;;4999077;28;20125;-82
2024/02/27 04:32:33;;;;;;;14.55;7.80;;;;;;;;;;4997071;28;20030;-82
2024/02/27 04:34:58;;;;;;;12.10;7.32;;;;;;;;;;5003543;28;20041;-82
2024/02/27 04:37:24;;;;;;;13.93;7.22;;;;;;;;;;5004806;28;20018;-82
2024/02/27 04:39:49;;;;;;;12.55;7.47;;;;;;;;;;4987517;28;20072;-82
2024/02/27 04:42:15;;;;;;;12.65;7.13;;;;;;;;;;4998453;28;20067;-78
2024/02/27 04:44:40;;;;;;;13.27;7.05;;;;;;;;;;5000448;28;20041;-78
2024/02/27 04:47:06;;;;;;;12.38;6.78;;;;;;;;;;4981729;28;20392;-78
2024/02/27 04:49:32;;;;;;;12.50;7.57;;;;;;;;;;5004165;28;20027;-78
2024/02/27 04:51:57;;;;;;;14.07;7.78;;;;;;;;;;4994069;28;20116;-78
2024/02/27 04:54:23;;;;;;;12.13;7.20;;;;;;;;;;4992916;28;20287;-78
2024/02/27 04:56:48;;;;;;;12.88;7.50;;;;;;;;;;5007435;28;20033;-78
2024/02/27 04:59:14;;;;;;;14.80;8.20;;;;;;;;;;5001508;28;20026;-78
2024/02/27 05:01:40;;;;;;;14.18;7.97;;;;;;;;;;5006448;28;20400;-78
2024/02/27 05:04:06;;;;;;;15.25;7.97;;;;;;;;;;5004845;28;20026;-78
2024/02/27 05:06:31;;;;;;;13.27;7.88;;;;;;;;;;4989010;28;20399;-79
2024/02/27 05:08:57;;;;;;;15.25;8.02;;;;;;;;;;5005503;28;20026;-78
2024/02/27 05:11:22;;;;;;;13.30;7.53;;;;;;;;;;5009166;28;20029;-78
2024/02/27 05:13:47;;;;;;;13.45;7.82;;;;;;;;;;5007723;28;20044;-78
2024/02/27 05:16:13;;;;;;;13.13;6.90;;;;;;;;;;5005710;28;20480;-78
2024/02/27 05:18:39;;;;;;;14.80;8.30;;;;;;;;;;5004510;28;20038;-79
2024/02/27 05:21:05;;;;;;;12.60;6.88;;;;;;;;;;5004265;28;20443;-78
2024/02/27 05:23:30;;;;;;;14.85;7.80;;;;;;;;;;5002182;28;20034;-76
2024/02/27 05:25:56;;;;;;;13.75;6.80;;;;;;;;;;5001847;28;20069;-76
2024/02/27 05:28:21;;;;;;;14.27;7.13;;;;;;;;;;4998898;28;20107;-76
2024/02/27 05:30:46;;;;;;;14.70;7.80;;;;;;;;;;4987711;28;20025;-76
2024/02/27 05:33:12;;;;;;;13.10;7.90;;;;;;;;;;5010259;28;20037;-76
2024/02/27 05:35:37;;;;;;;13.57;7.93;;;;;;;;;;5001133;28;20030;-76
2024/02/27 05:38:03;;;;;;;14.55;7.68;;;;;;;;;;5001520;28;20117;-78
2024/02/27 05:40:29;;;;;;;13.05;7.63;;;;;;;;;;5003783;28;20030;-78
2024/02/27 05:42:55;;;;;;;14.57;7.40;;;;;;;;;;5004241;28;20034;-78
2024/02/27 05:45:20;;;;;;;13.18;7.28;;;;;;;;;;4997689;28;20037;-78
2024/02/27 05:47:46;;;;;;;12.55;7.80;;;;;;;;;;4999705;28;20491;-78
2024/02/27 05:50:12;;;;;;;13.15;7.50;;;;;;;;;;5001575;28;20032;-78
2024/02/27 05:52:37;;;;;;;14.07;7.90;;;;;;;;;;5000332;28;20558;-78
2024/02/27 05:55:03;;;;;;;15.40;7.60;;;;;;;;;;5005079;28;20120;-78
2024/02/27 05:57:29;;;;;;;15.52;8.25;;;;;;;;;;4978534;28;20033;-78
2024/02/27 05:59:54;;;;;;;11.80;7.00;;;;;;;;;;4979309;28;20091;-78
2024/02/27 06:02:20;;;;;;;15.00;7.90;;;;;;;;;;4995619;28;20060;-81
2024/02/27 06:04:45;;;;;;;13.48;7.45;;;;;;;;;;4998446;28;20034;-81
2024/02/27 06:07:11;;;;;;;14.93;7.88;;;;;;;;;;4987695;28;20463;-81
2024/02/27 06:09:37;;;;;;;12.23;7.18;;;;;;;;;;4997396;28;20064;-81
2024/02/27 06:12:03;;;;;;;13.73;7.97;;;;;;;;;;4988492;28;20021;-77
2024/02/27 06:14:29;;;;;;;14.30;7.85;;;;;;;;;;4998037;28;20030;-78
2024/02/27 06:16:55;;;;;;;13.85;7.88;;;;;;;;;;5005107;28;20017;-77
2024/02/27 06:19:22;;;;;;;13.57;8.00;;;;;;;;;;5000585;28;20392;-77
2024/02/27 06:24:31;;;;;;;12.73;7.15;;;;;;;;;;5004542;28;20052;-77
2024/02/27 06:26:56;;;;;;;14.82;7.75;;;;;;;;;;4996881;28;20034;-77
2024/02/27 06:29:22;;;;;;;13.68;8.10;;;;;;;;;;5005468;28;20435;-77
2024/02/27 06:31:47;;;;;;;13.27;7.35;;;;;;;;;;5005243;28;20049;-78
2024/02/27 06:34:13;;;;;;;15.10;8.57;;;;;;;;;;4998904;28;20029;-78
2024/02/27 06:36:38;;;;;;;12.15;7.25;;;;;;;;;;4998807;28;20080;-77
2024/02/27 06:39:03;;;;;;;14.88;8.13;;;;;;;;;;4975772;28;20042;-77
2024/02/27 06:41:29;;;;;;;14.13;7.65;;;;;;;;;;4999740;28;20029;-77
2024/02/27 06:43:54;;;;;;;11.77;6.72;;;;;;;;;;5003989;28;20551;-77
2024/02/27 06:46:20;;;;;;;12.60;7.28;;;;;;;;;;5007114;28;20033;-77
2024/02/27 06:48:45;;;;;;;14.35;6.97;;;;;;;;;;4980953;28;20410;-77
2024/02/27 06:51:11;;;;;;;12.32;6.80;;;;;;;;;;4991321;28;20030;-77
2024/02/27 06:53:37;;;;;;;13.75;7.30;;;;;;;;;;5003120;28;20088;-77
2024/02/27 06:56:03;;;;;;;12.48;7.38;;;;;;;;;;5002602;28;20041;-78
2024/02/27 06:58:29;;;;;;;12.38;6.97;;;;;;;;;;4988608;28;20088;-77
2024/02/27 07:00:54;;;;;;;13.82;7.50;;;;;;;;;;4987700;28;20554;-77
2024/02/27 07:03:20;;;;;;;15.82;7.85;;;;;;;;;;5003689;28;20108;-77
2024/02/27 07:05:45;;;;;;;13.38;7.43;;;;;;;;;;5004672;28;20672;-77
2024/02/27 07:08:11;;;;;;;12.30;7.20;;;;;;;;;;5003116;28;20037;-77
2024/02/27 07:10:40;;;;;;;15.18;8.23;;;;;;;;;;4998239;28;20026;-77
2024/02/27 07:13:09;;;;;;;16.02;8.73;;;;;;;;;;5004681;28;20044;-77
2024/02/27 07:15:35;;;;;;;14.48;8.02;;;;;;;;;;4986496;28;20034;-77
2024/02/27 07:18:00;;;;;;;14.05;7.70;;;;;;;;;;5001000;28;20578;-77
2024/02/27 07:20:26;;;;;;;14.23;7.97;;;;;;;;;;4987365;28;20029;-77
2024/02/27 07:22:53;;;;;;;13.00;7.10;;;;;;;;;;4992890;28;20480;-80
2024/02/27 07:25:18;;;;;;;12.60;7.25;;;;;;;;;;4997562;28;20029;-80
2024/02/27 07:27:47;;;;;;;14.02;7.95;;;;;;;;;;5003510;28;20026;-80
2024/02/27 07:30:16;;;;;;;15.18;7.55;;;;;;;;;;5007355;28;20554;-80
2024/02/27 07:32:42;;;;;;;14.98;8.18;;;;;;;;;;4987087;28;20030;-81
2024/02/27 07:35:08;;;;;;;14.30;8.05;;;;;;;;;;5002854;28;20443;-80
2024/02/27 07:37:34;;;;;;;14.48;8.27;;;;;;;;;;5001935;28;20026;-80
2024/02/27 07:39:59;;;;;;;12.95;7.43;;;;;;;;;;4984164;28;20093;-80
2024/02/27 07:42:25;;;;;;;15.50;8.23;;;;;;;;;;5002412;28;20030;-80
2024/02/27 07:44:50;;;;;;;16.02;7.43;;;;;;;;;;5000964;28;20523;-80
2024/02/27 07:47:16;;;;;;;14.50;7.88;;;;;;;;;;5000010;28;20026;-81
2024/02/27 07:49:46;;;;;;;19.10;8.68;;;;;;;;;;5000907;28;20030;-81
2024/02/27 07:52:11;;;;;;;15.82;7.68;;;;;;;;;;5000008;28;20030;-80
2024/02/27 07:54:38;;;;;;;16.08;8.10;;;;;;;;;;4999495;28;20364;-81
2024/02/27 07:57:03;;;;;;;13.77;7.78;;;;;;;;;;4999761;28;20033;-81
2024/02/27 07:59:29;;;;;;;14.20;8.30;;;;;;;;;;5001188;28;20030;-81
2024/02/27 08:01:54;;;;;;;13.98;8.18;;;;;;;;;;4993060;28;20038;-81
2024/02/27 08:04:20;;;;;;;14.50;7.85;;;;;;;;;;5002583;28;20492;-81
2024/02/27 08:06:45;;;;;;;14.35;7.78;;;;;;;;;;4994879;28;20154;-79
2024/02/27 08:09:11;;;;;;;14.98;8.43;;;;;;;;;;5001125;28;20081;-79
2024/02/27 08:11:36;;;;;;;15.90;7.95;;;;;;;;;;5003245;28;20049;-79
2024/02/27 08:14:02;;;;;;;14.13;8.25;;;;;;;;;;5002093;28;20022;-79
2024/02/27 08:16:28;;;;;;;16.00;8.57;;;;;;;;;;5001266;28;20106;-79
2024/02/27 08:18:54;;;;;;;17.23;9.52;;;;;;;;;;4998872;28;20028;-81
2024/02/27 08:21:19;;;;;;;15.13;8.15;;;;;;;;;;4995777;28;20109;-80
2024/02/27 08:23:45;;;;;;;13.57;8.02;;;;;;;;;;5005128;28;20116;-82
2024/02/27 08:26:10;;;;;;;16.77;8.32;;;;;;;;;;5006170;28;20022;-81
2024/02/27 08:28:36;;;;;;;15.43;8.23;;;;;;;;;;5004534;28;20023;-82
2024/02/27 08:31:03;;;;;;;14.10;7.95;;;;;;;;;;5005105;28;20077;-81
2024/02/27 08:33:29;;;;;;;13.77;7.47;;;;;;;;;;5008577;28;20037;-76
2024/02/27 08:35:55;;;;;;;15.88;8.35;;;;;;;;;;5011674;28;20430;-77
2024/02/27 08:38:20;;;;;;;13.88;8.10;;;;;;;;;;5014273;28;20113;-77
2024/02/27 08:40:45;;;;;;;14.98;8.02;;;;;;;;;;5009806;28;20053;-77
2024/02/27 08:43:14;;;;;;;15.13;8.13;;;;;;;;;;5002825;28;20117;-77
2024/02/27 08:45:39;;;;;;;13.68;7.60;;;;;;;;;;5004532;28;20578;-77
2024/02/27 08:48:05;;;;;;;12.55;8.02;;;;;;;;;;5003698;28;20041;-77
2024/02/27 08:50:31;;;;;;;14.60;8.27;;;;;;;;;;4992936;28;20018;-78
2024/02/27 08:52:56;;;;;;;15.15;8.13;;;;;;;;;;4990334;28;20057;-78
2024/02/27 08:55:25;;;;;;;13.45;7.95;;;;;;;;;;5004977;28;20499;-79
2024/02/27 08:57:50;;;;;;;14.52;8.43;;;;;;;;;;5004730;28;20495;-79
2024/02/27 09:00:16;;;;;;;16.10;7.78;;;;;;;;;;5001968;28;20030;-78
2024/02/27 09:02:43;;;;;;;16.27;8.75;;;;;;;;;;4997688;28;20388;-78
2024/02/27 09:05:08;;;;;;;12.70;8.13;;;;;;;;;;4993316;28;20030;-78
2024/02/27 09:07:43;;;;;;;14.25;8.07;;;;;;;;;;5007934;28;20510;-79
2024/02/27 09:10:09;;;;;;;15.75;8.57;;;;;;;;;;4992552;28;20057;-78
2024/02/27 09:12:35;;;;;;;18.33;8.38;;;;;;;;;;4998961;28;20519;-78
2024/02/27 09:15:01;;;;;;;15.82;8.15;;;;;;;;;;5004488;28;20029;-79
2024/02/27 09:17:26;;;;;;;12.55;7.78;;;;;;;;;;4990685;28;20445;-78
2024/02/27 09:19:51;;;;;;;16.55;9.15;;;;;;;;;;4987432;28;20033;-77
2024/02/27 09:22:17;;;;;;;15.50;8.57;;;;;;;;;;4993640;28;20028;-77
2024/02/27 09:24:43;;;;;;;14.65;8.07;;;;;;;;;;5011037;28;20492;-77
2024/02/27 09:27:08;;;;;;;17.10;8.90;;;;;;;;;;5007008;28;20404;-78
2024/02/27 09:29:34;;;;;;;16.17;9.05;;;;;;;;;;4981663;28;20030;-77
2024/02/27 09:31:59;;;;;;;17.08;8.98;;;;;;;;;;4999711;28;20022;-78
2024/02/27 09:34:24;;;;;;;16.90;8.68;;;;;;;;;;5012536;28;20080;-78
2024/02/27 09:36:50;;;;;;;16.10;8.82;;;;;;;;;;5012219;28;20022;-77
2024/02/27 09:39:16;;;;;;;14.05;8.70;;;;;;;;;;5006515;28;20026;-78
2024/02/27 09:42:07;;;;;;;13.85;8.70;;;;;;;;;;5000544;28;20030;-78
2024/02/27 09:44:34;;;;;;;16.08;8.73;;;;;;;;;;4993138;28;20030;-77
2024/02/27 09:47:03;;;;;;;13.25;8.40;;;;;;;;;;4984858;28;20032;-77
2024/02/27 09:49:29;;;;;;;15.93;8.63;;;;;;;;;;5010967;28;20065;-77
2024/02/27 09:51:56;;;;;;;15.98;8.90;;;;;;;;;;4990027;28;20026;-78
2024/02/27 09:54:21;;;;;;;17.02;9.45;;;;;;;;;;5001232;28;20061;-78
2024/02/27 09:56:47;;;;;;;13.60;8.82;;;;;;;;;;5005693;28;20041;-77
2024/02/27 09:59:13;;;;;;;15.40;8.85;;;;;;;;;;4999387;28;20026;-78
2024/02/27 10:01:41;;;;;;;13.00;8.27;;;;;;;;;;4994999;28;20446;-80
2024/02/27 10:04:08;;;;;;;18.13;9.85;;;;;;;;;;5002759;28;20468;-79
2024/02/27 10:06:33;;;;;;;17.05;9.60;;;;;;;;;;4982232;28;20032;-79
2024/02/27 10:09:02;;;;;;;16.50;9.55;;;;;;;;;;5000595;28;20013;-80
2024/02/27 10:11:28;;;;;;;14.18;8.73;;;;;;;;;;5003154;28;20034;-78
2024/02/27 10:13:54;;;;;;;14.48;9.20;;;;;;;;;;4988923;28;20045;-78
2024/02/27 10:16:22;;;;;;;14.80;8.48;;;;;;;;;;4994378;28;20030;-78
2024/02/27 10:18:50;;;;;;;14.65;8.75;;;;;;;;;;4986761;28;20041;-77
2024/02/27 10:21:19;;;;;;;14.30;8.85;;;;;;;;;;5004706;28;20029;-78
2024/02/27 10:23:46;;;;;;;16.17;9.55;;;;;;;;;;4999541;28;20025;-80
2024/02/27 10:26:12;;;;;;;13.32;9.05;;;;;;;;;;5005791;28;20029;-79
2024/02/27 10:28:38;;;;;;;14.73;8.65;;;;;;;;;;5004616;28;20101;-79
2024/02/27 10:31:11;;;;;;;14.95;8.57;;;;;;;;;;5000276;28;20109;-79
2024/02/27 10:33:38;;;;;;;13.80;8.57;;;;;;;;;;5009144;28;20036;-79
2024/02/27 10:36:04;;;;;;;16.67;9.02;;;;;;;;;;4989757;28;20084;-79
2024/02/27 10:38:29;;;;;;;15.20;9.10;;;;;;;;;;5005464;28;20033;-79
2024/02/27 10:40:54;;;;;;;15.32;8.60;;;;;;;;;;5009658;28;20029;-79
2024/02/27 10:43:20;;;;;;;15.55;8.68;;;;;;;;;;4997237;28;20081;-79
2024/02/27 10:45:49;;;;;;;17.58;9.07;;;;;;;;;;4988155;28;20029;-79
2024/02/27 10:48:16;;;;;;;12.32;7.97;;;;;;;;;;4991494;28;20076;-79
2024/02/27 10:50:43;;;;;;;13.43;8.38;;;;;;;;;;5007691;28;20068;-79
2024/02/27 10:53:10;;;;;;;13.25;8.38;;;;;;;;;;4996891;28;20660;-79
2024/02/27 10:55:37;;;;;;;13.35;8.50;;;;;;;;;;5008000;28;20026;-79
2024/02/27 10:58:03;;;;;;;16.20;8.80;;;;;;;;;;4998066;28;20028;-79
2024/02/27 11:00:29;;;;;;;15.80;8.60;;;;;;;;;;5002618;28;20034;-79
2024/02/27 11:02:58;;;;;;;13.73;8.77;;;;;;;;;;4984105;28;20037;-79
2024/02/27 11:05:28;;;;;;;15.23;8.15;;;;;;;;;;4997344;28;20117;-79
2024/02/27 11:07:55;;;;;;;14.35;8.57;;;;;;;;;;4991059;28;20022;-79
2024/02/27 11:10:21;;;;;;;14.98;8.82;;;;;;;;;;5001344;28;20181;-79
2024/02/27 11:12:50;;;;;;;18.55;9.05;;;;;;;;;;4992843;28;20483;-79
2024/02/27 11:15:17;;;;;;;16.08;9.38;;;;;;;;;;4996730;28;20034;-79
2024/02/27 11:17:47;;;;;;;13.98;8.45;;;;;;;;;;4999065;28;20034;-79
2024/02/27 11:20:15;;;;;;;15.13;8.90;;;;;;;;;;4988977;28;20026;-79
2024/02/27 11:22:43;;;;;;;14.48;8.48;;;;;;;;;;5005455;28;20033;-79
2024/02/27 11:25:09;;;;;;;18.70;8.93;;;;;;;;;;5003204;28;20025;-79
2024/02/27 11:27:36;;;;;;;15.93;9.60;;;;;;;;;;5005534;28;20364;-79
2024/02/27 11:30:02;;;;;;;15.88;9.25;;;;;;;;;;4993813;28;20109;-79
2024/02/27 11:32:30;;;;;;;15.75;8.40;;;;;;;;;;4998391;28;20050;-77
2024/02/27 11:34:56;;;;;;;14.82;8.68;;;;;;;;;;4992037;28;20029;-77
2024/02/27 11:37:23;;;;;;;13.85;8.88;;;;;;;;;;4989336;28;20116;-77
2024/02/27 11:39:49;;;;;;;14.70;8.63;;;;;;;;;;5001670;28;20027;-77
2024/02/27 11:42:26;;;;;;;13.70;8.88;;;;;;;;;;4998428;28;20032;-77
2024/02/27 11:45:12;;;;;;;14.00;8.57;;;;;;;;;;5005554;28;20086;-77
2024/02/27 11:47:47;;;;;;;15.55;8.30;;;;;;;;;;5001487;28;20396;-77
2024/02/27 11:50:32;;;;;;;14.15;9.02;;;;;;;;;;4987215;28;20029;-78
2024/02/27 11:52:58;;;;;;;15.30;8.48;;;;;;;;;;4996846;28;20053;-77
2024/02/27 11:55:23;;;;;;;13.35;8.25;;;;;;;;;;5000141;28;20061;-77
2024/02/27 11:57:53;;;;;;;14.88;8.32;;;;;;;;;;5006924;28;20474;-77
2024/02/27 12:00:19;;;;;;;14.15;8.02;;;;;;;;;;5003092;28;20227;-77
2024/02/27 12:02:46;;;;;;;15.18;9.15;;;;;;;;;;4986450;28;20030;-77
2024/02/27 12:05:12;;;;;;;12.23;8.23;;;;;;;;;;5008009;28;20021;-78
2024/02/27 12:07:37;;;;;;;13.75;8.82;;;;;;;;;;5002443;28;20072;-77
2024/02/27 12:10:11;;;;;;;12.55;8.38;;;;;;;;;;4991179;28;20470;-78
2024/02/27 12:12:38;;;;;;;14.23;9.10;;;;;;;;;;5009582;28;20084;-76
2024/02/27 12:15:04;;;;;;;13.88;8.88;;;;;;;;;;4982166;28;20464;-78
2024/02/27 12:17:31;;;;;;;13.63;8.48;;;;;;;;;;5008467;28;20037;-77
2024/02/27 12:19:57;;;;;;;15.50;9.23;;;;;;;;;;5004157;28;20073;-77
2024/02/27 12:22:23;;;;;;;16.80;8.95;;;;;;;;;;4992035;28;20036;-77
2024/02/27 12:24:54;;;;;;;15.23;9.20;;;;;;;;;;5006456;28;20034;-77
2024/02/27 12:27:19;;;;;;;14.02;7.68;;;;;;;;;;4999568;28;20030;-77
2024/02/27 12:29:45;;;;;;;14.25;9.05;;;;;;;;;;5002682;28;20383;-77
2024/02/27 12:32:10;;;;;;;15.80;9.13;;;;;;;;;;4989087;28;20113;-77
2024/02/27 12:34:37;;;;;;;14.20;8.82;;;;;;;;;;4994184;28;20088;-77
2024/02/27 12:37:04;;;;;;;14.18;9.05;;;;;;;;;;4998236;28;20109;-77
2024/02/27 12:39:30;;;;;;;14.18;9.27;;;;;;;;;;5003591;28;20114;-77
2024/02/27 12:41:56;;;;;;;16.48;9.15;;;;;;;;;;4984091;28;20018;-79
2024/02/27 12:44:21;;;;;;;14.93;9.25;;;;;;;;;;4999068;28;20369;-79
2024/02/27 12:46:47;;;;;;;17.23;9.70;;;;;;;;;;4998165;28;20078;-79
2024/02/27 12:49:13;;;;;;;15.15;9.07;;;;;;;;;;5000440;28;20024;-79
2024/02/27 12:51:38;;;;;;;15.02;8.30;;;;;;;;;;4970135;28;20057;-79
2024/02/27 12:54:06;;;;;;;15.50;9.02;;;;;;;;;;4994271;28;20025;-79
2024/02/27 12:56:33;;;;;;;15.82;8.73;;;;;;;;;;5001658;28;20105;-79
2024/02/27 12:58:59;;;;;;;13.80;8.80;;;;;;;;;;5000183;28;20038;-79
2024/02/27 13:01:24;;;;;;;13.98;9.00;;;;;;;;;;5000204;28;20032;-79
2024/02/27 13:03:50;;;;;;;15.27;8.93;;;;;;;;;;5001193;28;20026;-78
2024/02/27 13:06:15;;;;;;;14.13;9.05;;;;;;;;;;4990603;28;20026;-78
2024/02/27 13:08:41;;;;;;;12.43;7.97;;;;;;;;;;5001326;28;20411;-79
2024/02/27 13:11:08;;;;;;;15.38;8.98;;;;;;;;;;4994612;28;20018;-78
2024/02/27 13:13:33;;;;;;;13.07;8.77;;;;;;;;;;5001731;28;20025;-78
2024/02/27 13:16:02;;;;;;;15.77;9.45;;;;;;;;;;4999181;28;20033;-79
2024/02/27 13:18:28;;;;;;;14.38;8.98;;;;;;;;;;5001116;28;20030;-78
2024/02/27 13:20:54;;;;;;;16.38;9.38;;;;;;;;;;5007598;28;20479;-78
2024/02/27 13:23:20;;;;;;;14.15;8.93;;;;;;;;;;5003472;28;20030;-78
2024/02/27 13:25:48;;;;;;;13.55;7.93;;;;;;;;;;4998869;28;20129;-78
2024/02/27 13:28:13;;;;;;;17.98;8.65;;;;;;;;;;5002251;28;20026;-78
2024/02/27 13:30:39;;;;;;;14.18;8.60;;;;;;;;;;5003454;28;20380;-78
2024/02/27 13:33:04;;;;;;;13.52;8.43;;;;;;;;;;4983209;28;20551;-78
2024/02/27 13:35:29;;;;;;;15.70;9.30;;;;;;;;;;4998973;28;20026;-78
2024/02/27 13:37:55;;;;;;;16.45;9.40;;;;;;;;;;4983927;28;20034;-78
2024/02/27 13:40:20;;;;;;;15.60;8.70;;;;;;;;;;4985712;28;20041;-78
2024/02/27 13:42:45;;;;;;;13.50;8.98;;;;;;;;;;4998132;28;20125;-78
2024/02/27 13:45:11;;;;;;;15.98;9.50;;;;;;;;;;4999810;28;20083;-78
2024/02/27 13:47:37;;;;;;;14.27;9.15;;;;;;;;;;4998613;28;20054;-77
2024/02/27 13:50:02;;;;;;;14.88;9.43;;;;;;;;;;4993580;28;20741;-79
2024/02/27 13:52:27;;;;;;;15.35;9.15;;;;;;;;;;4990483;28;20042;-78
2024/02/27 13:54:53;;;;;;;14.88;8.82;;;;;;;;;;4995633;28;20085;-77
2024/02/27 13:57:19;;;;;;;13.07;8.70;;;;;;;;;;5000192;28;20030;-77
2024/02/27 13:59:44;;;;;;;13.77;9.15;;;;;;;;;;5000735;28;20036;-78
2024/02/27 14:02:10;;;;;;;13.23;8.52;;;;;;;;;;5004772;28;20037;-77
2024/02/27 14:04:35;;;;;;;12.20;7.75;;;;;;;;;;4998614;28;20049;-76
2024/02/27 14:07:00;;;;;;;13.93;8.77;;;;;;;;;;5000027;28;20023;-79
2024/02/27 14:09:26;;;;;;;15.90;8.63;;;;;;;;;;4995226;28;20471;-78
2024/02/27 14:11:51;;;;;;;16.63;9.68;;;;;;;;;;4998163;28;20034;-79
2024/02/27 14:14:17;;;;;;;15.27;9.93;;;;;;;;;;4997807;28;20066;-79
2024/02/27 14:16:43;;;;;;;14.20;9.02;;;;;;;;;;4986877;28;20030;-77
2024/02/27 14:19:09;;;;;;;14.25;9.40;;;;;;;;;;4988433;28;20038;-79
2024/02/27 14:21:35;;;;;;;14.55;9.43;;;;;;;;;;4977805;28;20034;-79
2024/02/27 14:24:00;;;;;;;15.45;9.45;;;;;;;;;;4986480;28;20036;-78
2024/02/27 14:26:26;;;;;;;13.90;8.88;;;;;;;;;;4994259;28;20046;-80
2024/02/27 14:28:51;;;;;;;13.77;8.90;;;;;;;;;;4977796;28;20448;-79